Time;durP1;ratioP1;P1;durP2;ratioP2;P2;SDS_P1;SDS_P2;PMS_P1;PMS_P2;Temp;Humidity;BMP_temperature;BMP_pressure;BME280_temperature;BME280_humidity;BME280_pressure;Samples;Min_cycle;Max_cycle;Signal;HPM_P1;HPM_P2
2022/06/01 00:01:05;;;;;;;2.57;2.37;;;;;;;;;;5029035;28;20244;-82
2022/06/01 00:03:33;;;;;;;3.47;3.03;;;;;;;;;;5029723;28;20219;-81
2022/06/01 00:06:00;;;;;;;4.83;3.27;;;;;;;;;;5029196;28;20202;-82
2022/06/01 00:08:27;;;;;;;3.23;2.93;;;;;;;;;;5029829;28;20620;-80
2022/06/01 00:10:57;;;;;;;4.03;3.07;;;;;;;;;;5029251;28;20199;-80
2022/06/01 00:13:24;;;;;;;3.20;2.90;;;;;;;;;;5029305;28;20247;-80
2022/06/01 00:15:51;;;;;;;6.43;2.73;;;;;;;;;;5029597;28;20564;-80
2022/06/01 00:18:18;;;;;;;2.73;2.53;;;;;;;;;;5029296;28;20197;-80
2022/06/01 00:20:46;;;;;;;3.50;2.70;;;;;;;;;;5013659;28;20263;-80
2022/06/01 00:23:13;;;;;;;6.23;3.50;;;;;;;;;;5009436;28;20814;-80
2022/06/01 00:25:41;;;;;;;5.63;2.90;;;;;;;;;;5009290;28;20630;-80
2022/06/01 00:28:10;;;;;;;5.87;3.30;;;;;;;;;;5009177;28;20257;-80
2022/06/01 00:30:37;;;;;;;3.37;2.47;;;;;;;;;;5009551;28;20257;-80
2022/06/01 00:33:04;;;;;;;5.87;2.97;;;;;;;;;;5009394;28;20242;-80
2022/06/01 00:35:32;;;;;;;3.27;2.97;;;;;;;;;;5008923;28;20202;-81
2022/06/01 00:37:59;;;;;;;4.90;2.70;;;;;;;;;;5009154;28;20203;-80
2022/06/01 00:40:27;;;;;;;2.90;2.70;;;;;;;;;;5009119;28;20690;-81
2022/06/01 00:42:57;;;;;;;2.83;2.63;;;;;;;;;;5009215;28;20219;-80
2022/06/01 00:45:27;;;;;;;6.80;2.90;;;;;;;;;;5009381;28;20195;-80
2022/06/01 00:47:55;;;;;;;3.90;3.13;;;;;;;;;;5009163;28;20728;-80
2022/06/01 00:50:25;;;;;;;4.53;3.10;;;;;;;;;;5008595;28;20241;-80
2022/06/01 00:52:54;;;;;;;4.20;3.17;;;;;;;;;;5009368;28;20259;-80
2022/06/01 00:55:24;;;;;;;3.83;3.03;;;;;;;;;;5009231;28;20586;-80
2022/06/01 00:57:52;;;;;;;4.27;2.70;;;;;;;;;;5009071;28;20196;-81
2022/06/01 01:00:23;;;;;;;6.17;3.60;;;;;;;;;;5009220;28;20199;-80
2022/06/01 01:02:55;;;;;;;3.17;2.90;;;;;;;;;;5009251;28;20272;-80
2022/06/01 01:05:23;;;;;;;4.73;3.50;;;;;;;;;;5008870;28;20193;-81
2022/06/01 01:07:51;;;;;;;4.80;3.87;;;;;;;;;;5008911;28;20202;-80
2022/06/01 01:10:19;;;;;;;4.37;3.83;;;;;;;;;;5008872;28;20230;-80
2022/06/01 01:13:01;;;;;;;4.57;4.00;;;;;;;;;;5009193;28;20199;-80
2022/06/01 01:15:31;;;;;;;5.87;3.77;;;;;;;;;;5008951;28;20273;-80
2022/06/01 01:18:01;;;;;;;5.57;3.80;;;;;;;;;;5008906;28;20197;-80
2022/06/01 01:20:28;;;;;;;4.50;4.10;;;;;;;;;;5008915;28;20202;-80
2022/06/01 01:23:02;;;;;;;4.97;3.77;;;;;;;;;;5008770;28;20684;-80
2022/06/01 01:25:32;;;;;;;3.63;3.33;;;;;;;;;;5008870;28;20198;-80
2022/06/01 01:28:02;;;;;;;3.30;3.10;;;;;;;;;;5008697;28;20675;-80
2022/06/01 01:30:40;;;;;;;3.40;3.20;;;;;;;;;;5008512;28;20214;-80
2022/06/01 01:33:09;;;;;;;4.13;2.90;;;;;;;;;;5008367;28;20218;-80
2022/06/01 01:35:37;;;;;;;4.27;3.97;;;;;;;;;;5008347;28;20640;-81
2022/06/01 01:38:06;;;;;;;4.27;3.87;;;;;;;;;;5008843;28;20203;-80
2022/06/01 01:40:35;;;;;;;7.57;3.73;;;;;;;;;;5008438;28;20680;-80
2022/06/01 01:43:03;;;;;;;3.67;3.33;;;;;;;;;;5008423;28;20275;-80
2022/06/01 01:45:31;;;;;;;5.33;3.27;;;;;;;;;;5008644;28;20257;-80
2022/06/01 01:47:58;;;;;;;3.80;3.50;;;;;;;;;;5010208;28;20259;-80
2022/06/01 01:50:26;;;;;;;5.33;3.53;;;;;;;;;;5011587;28;20309;-80
2022/06/01 01:52:54;;;;;;;4.00;3.60;;;;;;;;;;5012127;28;20197;-81
2022/06/01 01:55:29;;;;;;;3.80;3.50;;;;;;;;;;5011913;28;20263;-80
2022/06/01 01:58:04;;;;;;;3.63;3.33;;;;;;;;;;5011647;28;20188;-80
2022/06/01 02:00:34;;;;;;;9.00;4.30;;;;;;;;;;5011341;28;20195;-80
2022/06/01 02:03:06;;;;;;;5.77;4.03;;;;;;;;;;5011574;28;20737;-80
2022/06/01 02:08:25;;;;;;;4.50;3.70;;;;;;;;;;5011705;28;20193;-81
2022/06/01 02:13:41;;;;;;;6.40;4.13;;;;;;;;;;5031393;28;20187;-80
2022/06/01 02:16:08;;;;;;;5.63;3.90;;;;;;;;;;5031262;28;20235;-81
2022/06/01 02:18:38;;;;;;;5.03;4.53;;;;;;;;;;5031392;28;20204;-80
2022/06/01 02:21:08;;;;;;;5.30;4.07;;;;;;;;;;5030949;28;20644;-80
2022/06/01 02:23:36;;;;;;;5.17;3.23;;;;;;;;;;5031163;28;20280;-80
2022/06/01 02:26:04;;;;;;;3.80;3.50;;;;;;;;;;5030887;28;20250;-80
2022/06/01 02:28:31;;;;;;;5.27;3.30;;;;;;;;;;5030985;28;20262;-80
2022/06/01 02:31:00;;;;;;;7.20;3.53;;;;;;;;;;5030724;28;20658;-81
2022/06/01 02:33:32;;;;;;;3.83;3.43;;;;;;;;;;5031016;28;20344;-80
2022/06/01 02:36:01;;;;;;;3.03;2.83;;;;;;;;;;5030723;28;20191;-80
2022/06/01 02:38:31;;;;;;;4.77;3.23;;;;;;;;;;5031182;28;20302;-81
2022/06/01 02:41:01;;;;;;;4.57;3.50;;;;;;;;;;5030684;28;20198;-80
2022/06/01 02:43:28;;;;;;;7.87;3.63;;;;;;;;;;5030822;28;20227;-80
2022/06/01 02:45:56;;;;;;;6.27;3.43;;;;;;;;;;5030586;28;20197;-80
2022/06/01 02:48:24;;;;;;;6.03;3.27;;;;;;;;;;5030961;28;20288;-80
2022/06/01 02:50:51;;;;;;;5.13;3.10;;;;;;;;;;5030089;28;20293;-80
2022/06/01 02:53:18;;;;;;;3.70;3.07;;;;;;;;;;5030652;28;20738;-81
2022/06/01 02:55:45;;;;;;;8.73;3.13;;;;;;;;;;5030386;28;20198;-81
2022/06/01 02:58:13;;;;;;;6.73;3.80;;;;;;;;;;5030802;28;20221;-80
2022/06/01 03:00:40;;;;;;;5.70;3.87;;;;;;;;;;5030325;28;20286;-80
2022/06/01 03:03:10;;;;;;;3.83;3.20;;;;;;;;;;5030211;28;20203;-80
2022/06/01 03:05:40;;;;;;;5.10;3.50;;;;;;;;;;5030352;28;20204;-80
2022/06/01 03:08:08;;;;;;;7.03;4.60;;;;;;;;;;5030347;28;20713;-81
2022/06/01 03:10:35;;;;;;;7.40;4.23;;;;;;;;;;5030170;28;20200;-81
2022/06/01 03:13:04;;;;;;;4.23;3.70;;;;;;;;;;5030360;28;20205;-81
2022/06/01 03:15:31;;;;;;;5.07;3.87;;;;;;;;;;5030150;28;20201;-82
2022/06/01 03:17:58;;;;;;;7.03;4.20;;;;;;;;;;5030234;28;20199;-81
2022/06/01 03:20:28;;;;;;;4.53;4.00;;;;;;;;;;5030381;28;20201;-82
2022/06/01 03:22:56;;;;;;;4.20;3.90;;;;;;;;;;5029894;28;20238;-82
2022/06/01 03:25:24;;;;;;;4.53;3.67;;;;;;;;;;5030217;28;20219;-83
2022/06/01 03:27:52;;;;;;;4.57;3.90;;;;;;;;;;5030111;28;20739;-82
2022/06/01 03:30:21;;;;;;;4.63;3.63;;;;;;;;;;5030163;28;20232;-83
2022/06/01 03:32:48;;;;;;;4.83;3.73;;;;;;;;;;5029753;28;20679;-83
2022/06/01 03:35:17;;;;;;;5.47;4.10;;;;;;;;;;5030151;28;20276;-82
2022/06/01 03:37:44;;;;;;;8.83;4.27;;;;;;;;;;5029956;28;20616;-82
2022/06/01 03:40:14;;;;;;;4.80;4.40;;;;;;;;;;5030013;28;20201;-81
2022/06/01 03:42:41;;;;;;;6.03;4.20;;;;;;;;;;5029660;28;20199;-81
2022/06/01 03:47:55;;;;;;;4.23;3.50;;;;;;;;;;5030000;28;20197;-83
2022/06/01 03:50:23;;;;;;;3.33;3.13;;;;;;;;;;5029412;28;20282;-82
2022/06/01 03:52:51;;;;;;;3.90;3.53;;;;;;;;;;5029532;28;20200;-81
2022/06/01 03:55:20;;;;;;;4.33;3.53;;;;;;;;;;5029458;28;20262;-82
2022/06/01 03:57:48;;;;;;;5.10;3.77;;;;;;;;;;5029683;28;20261;-81
2022/06/01 04:00:17;;;;;;;5.50;3.30;;;;;;;;;;5029755;28;20683;-81
2022/06/01 04:02:44;;;;;;;4.87;3.53;;;;;;;;;;5029737;28;20618;-81
2022/06/01 04:05:12;;;;;;;4.43;4.03;;;;;;;;;;5029421;28;20235;-83
2022/06/01 04:07:39;;;;;;;4.10;3.80;;;;;;;;;;5029837;28;20200;-83
2022/06/01 04:10:07;;;;;;;4.77;4.27;;;;;;;;;;5028904;28;20206;-84
2022/06/01 04:12:36;;;;;;;6.13;4.13;;;;;;;;;;5029242;28;20209;-84
2022/06/01 04:15:05;;;;;;;5.50;4.63;;;;;;;;;;5029307;28;20204;-84
2022/06/01 04:17:32;;;;;;;4.60;4.20;;;;;;;;;;5027173;28;20200;-83
2022/06/01 04:19:59;;;;;;;4.63;4.23;;;;;;;;;;5024910;28;20207;-84
2022/06/01 04:22:26;;;;;;;4.30;3.80;;;;;;;;;;5029524;28;20263;-84
2022/06/01 04:24:53;;;;;;;5.63;3.80;;;;;;;;;;5029495;28;20280;-83
2022/06/01 04:27:20;;;;;;;4.23;3.70;;;;;;;;;;5029244;28;20233;-83
2022/06/01 04:29:48;;;;;;;4.20;3.80;;;;;;;;;;5028976;28;20207;-84
2022/06/01 04:32:17;;;;;;;4.37;4.07;;;;;;;;;;5029207;28;20253;-81
2022/06/01 04:34:44;;;;;;;4.73;4.07;;;;;;;;;;5028964;28;20202;-82
2022/06/01 04:37:11;;;;;;;4.73;4.30;;;;;;;;;;5029083;28;20204;-81
2022/06/01 04:39:38;;;;;;;6.60;4.30;;;;;;;;;;5029169;28;20213;-82
2022/06/01 04:42:07;;;;;;;6.53;4.20;;;;;;;;;;5028843;28;20258;-82
2022/06/01 04:44:34;;;;;;;5.30;4.80;;;;;;;;;;5028991;28;20228;-82
2022/06/01 04:47:04;;;;;;;4.20;3.90;;;;;;;;;;5028912;28;20193;-81
2022/06/01 04:49:31;;;;;;;5.27;3.40;;;;;;;;;;5028678;28;20328;-81
2022/06/01 04:51:58;;;;;;;4.70;3.80;;;;;;;;;;5028721;28;20177;-80
2022/06/01 04:54:25;;;;;;;4.73;3.70;;;;;;;;;;5028852;28;20745;-80
2022/06/01 04:56:52;;;;;;;4.33;3.90;;;;;;;;;;5028748;28;20208;-82
2022/06/01 04:59:19;;;;;;;6.20;4.40;;;;;;;;;;5028767;28;20198;-80
2022/06/01 05:01:47;;;;;;;6.47;3.90;;;;;;;;;;5028961;28;20209;-81
2022/06/01 05:04:16;;;;;;;5.20;4.70;;;;;;;;;;5028892;28;20232;-80
2022/06/01 05:06:43;;;;;;;6.30;5.43;;;;;;;;;;5028766;28;20259;-81
2022/06/01 05:09:10;;;;;;;7.27;4.20;;;;;;;;;;5028697;28;20234;-80
2022/06/01 05:11:37;;;;;;;6.70;5.03;;;;;;;;;;5028497;28;20259;-80
2022/06/01 05:14:04;;;;;;;5.20;4.40;;;;;;;;;;5028728;28;20201;-80
2022/06/01 05:16:32;;;;;;;7.63;4.67;;;;;;;;;;5028718;28;20636;-81
2022/06/01 05:18:59;;;;;;;4.10;3.80;;;;;;;;;;5028536;28;20206;-81
2022/06/01 05:21:28;;;;;;;4.33;4.03;;;;;;;;;;5028460;28;20252;-80
2022/06/01 05:23:55;;;;;;;4.10;3.70;;;;;;;;;;5031899;28;20687;-81
2022/06/01 05:26:22;;;;;;;4.73;4.33;;;;;;;;;;5031867;28;20226;-81
2022/06/01 05:28:49;;;;;;;11.03;4.67;;;;;;;;;;5032320;28;20195;-80
2022/06/01 05:31:16;;;;;;;5.13;3.90;;;;;;;;;;5032076;28;20702;-82
2022/06/01 05:33:44;;;;;;;5.37;4.83;;;;;;;;;;5031991;28;20195;-81
2022/06/01 05:36:12;;;;;;;5.50;4.63;;;;;;;;;;5031719;28;20260;-81
2022/06/01 05:38:40;;;;;;;5.10;4.60;;;;;;;;;;5032157;28;20225;-81
2022/06/01 05:41:07;;;;;;;7.13;4.50;;;;;;;;;;5031645;28;20733;-81
2022/06/01 05:43:35;;;;;;;5.97;4.67;;;;;;;;;;5032032;28;20285;-81
2022/06/01 05:46:02;;;;;;;4.17;3.87;;;;;;;;;;5031405;28;20317;-81
2022/06/01 05:48:29;;;;;;;7.20;4.57;;;;;;;;;;5031395;28;20195;-81
2022/06/01 05:50:56;;;;;;;5.10;4.60;;;;;;;;;;5031200;28;20239;-81
2022/06/01 05:53:23;;;;;;;5.47;4.97;;;;;;;;;;5031659;28;20226;-81
2022/06/01 05:55:52;;;;;;;5.30;4.80;;;;;;;;;;5031303;28;20198;-81
2022/06/01 05:58:21;;;;;;;4.90;4.20;;;;;;;;;;5031658;28;20195;-80
2022/06/01 06:00:49;;;;;;;7.60;4.17;;;;;;;;;;5031334;28;20203;-81
2022/06/01 06:03:17;;;;;;;4.73;4.00;;;;;;;;;;5031416;28;20286;-81
2022/06/01 06:08:28;;;;;;;4.50;4.13;;;;;;;;;;5031685;28;20666;-80
2022/06/01 06:10:56;;;;;;;6.57;4.60;;;;;;;;;;5031140;28;20203;-81
2022/06/01 06:13:23;;;;;;;5.63;5.17;;;;;;;;;;5031566;28;20232;-81
2022/06/01 06:15:50;;;;;;;5.27;4.67;;;;;;;;;;5031093;28;20253;-81
2022/06/01 06:18:18;;;;;;;5.30;4.03;;;;;;;;;;5031172;28;20755;-81
2022/06/01 06:20:45;;;;;;;3.93;3.63;;;;;;;;;;5030981;28;20205;-81
2022/06/01 06:23:13;;;;;;;4.40;4.00;;;;;;;;;;5031299;28;20202;-81
2022/06/01 06:25:40;;;;;;;5.03;4.33;;;;;;;;;;5031221;28;20303;-81
2022/06/01 06:28:09;;;;;;;6.73;3.93;;;;;;;;;;5031062;28;20203;-81
2022/06/01 06:30:37;;;;;;;7.37;4.33;;;;;;;;;;5031172;28;20623;-81
2022/06/01 06:33:04;;;;;;;6.50;4.30;;;;;;;;;;5030611;28;20202;-81
2022/06/01 06:35:31;;;;;;;5.73;3.90;;;;;;;;;;5030893;28;20195;-80
2022/06/01 06:37:58;;;;;;;7.33;4.70;;;;;;;;;;5031068;28;20232;-81
2022/06/01 06:40:25;;;;;;;3.63;3.33;;;;;;;;;;5030689;28;20224;-81
2022/06/01 06:42:52;;;;;;;9.60;4.07;;;;;;;;;;5030859;28;20202;-81
2022/06/01 06:45:21;;;;;;;7.13;4.13;;;;;;;;;;5030484;28;20241;-82
2022/06/01 06:47:49;;;;;;;3.80;3.47;;;;;;;;;;5030891;28;20267;-81
2022/06/01 06:50:18;;;;;;;4.07;3.67;;;;;;;;;;5030432;28;20291;-82
2022/06/01 06:52:45;;;;;;;5.53;3.97;;;;;;;;;;5031024;28;20224;-82
2022/06/01 06:55:13;;;;;;;4.60;4.17;;;;;;;;;;5030414;28;20670;-81
2022/06/01 06:57:41;;;;;;;3.90;3.50;;;;;;;;;;5030349;28;20667;-82
2022/06/01 07:00:09;;;;;;;3.77;3.47;;;;;;;;;;5030774;28;20251;-82
2022/06/01 07:02:38;;;;;;;4.87;4.17;;;;;;;;;;5030893;28;20259;-82
2022/06/01 07:05:06;;;;;;;6.10;4.10;;;;;;;;;;5030345;28;20223;-81
2022/06/01 07:07:33;;;;;;;5.17;3.73;;;;;;;;;;5030668;28;20195;-83
2022/06/01 07:10:00;;;;;;;6.40;4.33;;;;;;;;;;5030864;28;20203;-82
2022/06/01 07:12:28;;;;;;;4.50;3.60;;;;;;;;;;5030342;28;20199;-81
2022/06/01 07:14:55;;;;;;;6.93;4.30;;;;;;;;;;5030169;28;20578;-84
2022/06/01 07:17:22;;;;;;;5.40;4.50;;;;;;;;;;5030727;28;20259;-84
2022/06/01 07:19:54;;;;;;;10.83;5.00;;;;;;;;;;5030483;28;20259;-84
2022/06/01 07:22:21;;;;;;;4.27;3.87;;;;;;;;;;5030583;28;20566;-84
2022/06/01 07:24:48;;;;;;;4.93;3.90;;;;;;;;;;5030128;28;20599;-84
2022/06/01 07:27:15;;;;;;;4.30;3.87;;;;;;;;;;5030474;28;20203;-84
2022/06/01 07:29:42;;;;;;;4.80;4.40;;;;;;;;;;5030002;28;20698;-83
2022/06/01 07:32:10;;;;;;;4.30;3.60;;;;;;;;;;5030133;28;20202;-84
2022/06/01 07:34:37;;;;;;;4.77;4.20;;;;;;;;;;5030032;28;20194;-84
2022/06/01 07:45:15;;;;;;;7.60;4.30;;;;;;;;;;5029087;28;20255;-85
2022/06/01 07:47:42;;;;;;;5.13;4.47;;;;;;;;;;5030186;28;20562;-84
2022/06/01 07:50:10;;;;;;;4.80;4.27;;;;;;;;;;5029860;28;20238;-82
2022/06/01 07:52:39;;;;;;;4.40;4.00;;;;;;;;;;5029975;28;20209;-82
2022/06/01 07:55:07;;;;;;;5.10;4.60;;;;;;;;;;5029730;28;20617;-82
2022/06/01 07:57:34;;;;;;;4.17;3.87;;;;;;;;;;5030034;28;20204;-85
2022/06/01 08:00:01;;;;;;;9.80;4.50;;;;;;;;;;5029608;28;20202;-85
2022/06/01 08:02:28;;;;;;;5.23;3.97;;;;;;;;;;5029521;28;20263;-86
2022/06/01 08:04:55;;;;;;;4.10;3.70;;;;;;;;;;5029592;28;20651;-84
2022/06/01 08:07:22;;;;;;;5.17;4.50;;;;;;;;;;5029859;28;20334;-85
2022/06/01 08:09:51;;;;;;;5.70;4.80;;;;;;;;;;5029395;28;20194;-82
2022/06/01 08:15:02;;;;;;;11.77;6.63;;;;;;;;;;5029546;28;20182;-85
2022/06/01 08:17:29;;;;;;;6.77;5.23;;;;;;;;;;5029455;28;20202;-85
2022/06/01 08:19:56;;;;;;;6.80;5.10;;;;;;;;;;5029314;28;20202;-85
2022/06/01 08:22:23;;;;;;;4.53;4.20;;;;;;;;;;5029752;28;20203;-83
2022/06/01 08:24:51;;;;;;;6.03;4.67;;;;;;;;;;5029211;28;20222;-83
2022/06/01 08:27:18;;;;;;;5.57;4.50;;;;;;;;;;5029405;28;20255;-83
2022/06/01 08:29:46;;;;;;;6.47;4.83;;;;;;;;;;5029370;28;20275;-83
2022/06/01 08:32:13;;;;;;;7.13;4.47;;;;;;;;;;5029164;28;20285;-83
2022/06/01 08:34:40;;;;;;;6.70;5.00;;;;;;;;;;5029108;28;20203;-83
2022/06/01 08:37:07;;;;;;;5.70;5.20;;;;;;;;;;5029695;28;20195;-83
2022/06/01 08:39:34;;;;;;;5.50;5.00;;;;;;;;;;5029335;28;20191;-83
2022/06/01 08:42:04;;;;;;;4.80;4.40;;;;;;;;;;5029074;28;20191;-83
2022/06/01 08:44:34;;;;;;;7.78;4.30;;;;;;;;;;5029301;28;20203;-83
2022/06/01 08:47:06;;;;;;;5.32;4.75;;;;;;;;;;5028982;28;20222;-83
2022/06/01 08:49:35;;;;;;;6.82;5.20;;;;;;;;;;5029095;28;20619;-83
2022/06/01 08:52:03;;;;;;;5.10;4.63;;;;;;;;;;5028840;28;20228;-83
2022/06/01 08:54:30;;;;;;;5.00;4.50;;;;;;;;;;5028983;28;20206;-84
2022/06/01 08:57:01;;;;;;;7.00;4.72;;;;;;;;;;5031418;28;20203;-85
2022/06/01 08:59:38;;;;;;;6.17;4.37;;;;;;;;;;5032909;28;20195;-83
2022/06/01 09:02:23;;;;;;;5.10;4.60;;;;;;;;;;5032309;28;20195;-83
2022/06/01 09:04:54;;;;;;;6.63;4.83;;;;;;;;;;5032629;28;20186;-83
2022/06/01 09:07:25;;;;;;;5.40;4.97;;;;;;;;;;5032448;28;20202;-83
2022/06/01 09:10:04;;;;;;;5.87;4.47;;;;;;;;;;5032023;28;20228;-83
2022/06/01 09:12:33;;;;;;;4.55;4.15;;;;;;;;;;5032724;28;20567;-83
2022/06/01 09:15:12;;;;;;;5.50;4.50;;;;;;;;;;5032413;28;20207;-83
2022/06/01 09:17:43;;;;;;;5.63;4.63;;;;;;;;;;5032192;28;20225;-84
2022/06/01 09:22:56;;;;;;;5.88;4.30;;;;;;;;;;5032222;28;20188;-82
2022/06/01 09:25:32;;;;;;;4.60;4.20;;;;;;;;;;5031856;28;20279;-83
2022/06/01 09:28:00;;;;;;;6.80;4.13;;;;;;;;;;5032056;28;20193;-85
2022/06/01 09:30:34;;;;;;;5.30;3.92;;;;;;;;;;5032060;28;20667;-83
2022/06/01 09:33:11;;;;;;;4.63;4.22;;;;;;;;;;5032325;28;20562;-83
2022/06/01 09:35:40;;;;;;;5.88;4.57;;;;;;;;;;5031850;28;20183;-83
2022/06/01 09:38:14;;;;;;;7.53;4.35;;;;;;;;;;5031785;28;20198;-83
2022/06/01 09:40:41;;;;;;;8.93;4.38;;;;;;;;;;5031969;28;20194;-83
2022/06/01 09:43:22;;;;;;;5.30;4.07;;;;;;;;;;5031798;28;20731;-84
2022/06/01 09:45:53;;;;;;;6.25;4.43;;;;;;;;;;5031765;28;20683;-83
2022/06/01 09:48:27;;;;;;;9.00;4.15;;;;;;;;;;5031706;28;20195;-83
2022/06/01 09:51:01;;;;;;;6.97;4.30;;;;;;;;;;5031493;28;20231;-83
2022/06/01 09:53:33;;;;;;;4.97;4.47;;;;;;;;;;5031722;28;20195;-83
2022/06/01 09:56:02;;;;;;;4.28;3.90;;;;;;;;;;5031564;28;20189;-83
2022/06/01 10:06:54;;;;;;;6.15;4.20;;;;;;;;;;5031262;28;20221;-83
2022/06/01 10:09:25;;;;;;;3.63;3.33;;;;;;;;;;5030951;28;20226;-83
2022/06/01 10:11:54;;;;;;;4.70;4.22;;;;;;;;;;5031341;28;20191;-83
2022/06/01 10:14:23;;;;;;;6.93;4.18;;;;;;;;;;5031346;28;20294;-83
2022/06/01 10:17:17;;;;;;;5.47;3.83;;;;;;;;;;5031178;28;20199;-83
2022/06/01 10:19:47;;;;;;;5.60;4.13;;;;;;;;;;5030988;28;20186;-83
2022/06/01 10:22:21;;;;;;;12.02;5.38;;;;;;;;;;5031208;28;20240;-82
2022/06/01 10:24:52;;;;;;;6.60;5.18;;;;;;;;;;5031043;28;20183;-83
2022/06/01 10:27:22;;;;;;;5.10;4.70;;;;;;;;;;5031164;28;20203;-82
2022/06/01 10:29:59;;;;;;;7.50;4.60;;;;;;;;;;5030640;28;20716;-83
2022/06/01 10:32:35;;;;;;;5.88;5.43;;;;;;;;;;5031354;28;20186;-83
2022/06/01 10:35:11;;;;;;;7.53;4.75;;;;;;;;;;5031298;28;20205;-82
2022/06/01 10:37:43;;;;;;;8.23;5.07;;;;;;;;;;5031097;28;20187;-83
2022/06/01 10:40:13;;;;;;;7.97;5.07;;;;;;;;;;5030591;28;20280;-84
2022/06/01 10:45:29;;;;;;;10.67;6.70;;;;;;;;;;5030906;28;20617;-84
2022/06/01 10:48:05;;;;;;;6.30;4.10;;;;;;;;;;5031117;28;20202;-83
2022/06/01 10:50:37;;;;;;;7.27;4.57;;;;;;;;;;5030289;28;20291;-82
2022/06/01 10:53:17;;;;;;;4.33;3.90;;;;;;;;;;5031099;28;20244;-83
2022/06/01 10:55:48;;;;;;;8.40;4.57;;;;;;;;;;5030656;28;20194;-83
2022/06/01 10:58:19;;;;;;;7.60;6.80;;;;;;;;;;5030741;28;20199;-82
2022/06/01 11:00:50;;;;;;;23.53;14.37;;;;;;;;;;5030611;28;20187;-83
2022/06/01 11:03:36;;;;;;;42.43;35.60;;;;;;;;;;5030850;28;20190;-82
2022/06/01 11:06:19;;;;;;;8.00;7.13;;;;;;;;;;5030682;28;20227;-82
2022/06/01 11:08:54;;;;;;;6.93;4.70;;;;;;;;;;5030314;28;20187;-82
2022/06/01 11:11:29;;;;;;;8.60;3.83;;;;;;;;;;5030285;28;20277;-82
2022/06/01 11:14:09;;;;;;;7.87;4.10;;;;;;;;;;5030474;28;20183;-82
2022/06/01 11:16:45;;;;;;;5.23;3.60;;;;;;;;;;5030156;28;20642;-82
2022/06/01 11:19:35;;;;;;;6.47;3.40;;;;;;;;;;5030022;28;20250;-81
2022/06/01 11:22:10;;;;;;;4.63;3.60;;;;;;;;;;5030599;28;20688;-82
2022/06/01 11:25:03;;;;;;;3.07;2.63;;;;;;;;;;5030485;28;20638;-84
2022/06/01 11:27:38;;;;;;;3.77;3.17;;;;;;;;;;5029964;28;20807;-83
2022/06/01 11:30:09;;;;;;;3.70;3.00;;;;;;;;;;5030385;28;20255;-82
2022/06/01 11:32:42;;;;;;;3.77;3.20;;;;;;;;;;5030530;28;20243;-83
2022/06/01 11:35:18;;;;;;;4.07;2.83;;;;;;;;;;5030273;28;20652;-83
2022/06/01 11:37:51;;;;;;;5.13;2.83;;;;;;;;;;5031346;28;20246;-83
2022/06/01 11:40:30;;;;;;;7.10;3.83;;;;;;;;;;5030307;28;20688;-83
2022/06/01 11:42:59;;;;;;;3.93;3.20;;;;;;;;;;5030053;28;20186;-83
2022/06/01 11:45:32;;;;;;;6.67;3.50;;;;;;;;;;5029610;28;20234;-82
2022/06/01 11:48:05;;;;;;;5.83;4.20;;;;;;;;;;5030038;28;20576;-83
2022/06/01 11:50:54;;;;;;;4.37;3.77;;;;;;;;;;5029496;28;20291;-83
2022/06/01 11:53:24;;;;;;;6.47;3.37;;;;;;;;;;5030171;28;20259;-83
2022/06/01 11:55:51;;;;;;;4.70;3.43;;;;;;;;;;5029362;28;20206;-83
2022/06/01 11:58:40;;;;;;;5.03;3.20;;;;;;;;;;5029804;28;20202;-83
2022/06/01 12:01:12;;;;;;;5.77;3.30;;;;;;;;;;5029749;28;20195;-83
2022/06/01 12:03:42;;;;;;;3.80;3.47;;;;;;;;;;5029533;28;20244;-83
2022/06/01 12:06:13;;;;;;;4.07;3.23;;;;;;;;;;5029406;28;20233;-83
2022/06/01 12:08:45;;;;;;;3.37;3.17;;;;;;;;;;5029996;28;20191;-83
2022/06/01 12:11:16;;;;;;;5.07;3.10;;;;;;;;;;5029253;28;20187;-83
2022/06/01 12:13:54;;;;;;;4.03;3.07;;;;;;;;;;5029609;28;20191;-83
2022/06/01 12:16:24;;;;;;;3.30;2.67;;;;;;;;;;5029621;28;20212;-83
2022/06/01 12:19:00;;;;;;;3.27;2.80;;;;;;;;;;5029304;28;20194;-83
2022/06/01 12:21:55;;;;;;;5.07;2.60;;;;;;;;;;5029449;28;20189;-83
2022/06/01 12:30:15;;;;;;;3.47;3.17;;;;;;;;;;5029783;28;20182;-83
2022/06/01 12:33:09;;;;;;;5.07;3.37;;;;;;;;;;5029007;28;20194;-83
2022/06/01 12:35:42;;;;;;;5.13;2.87;;;;;;;;;;5029351;28;20251;-83
2022/06/01 12:38:15;;;;;;;3.47;3.17;;;;;;;;;;5029555;28;20206;-84
2022/06/01 12:40:42;;;;;;;6.13;3.03;;;;;;;;;;5029181;28;20183;-84
2022/06/01 12:43:15;;;;;;;4.20;3.70;;;;;;;;;;5029049;28;20251;-83
2022/06/01 12:45:44;;;;;;;5.23;3.73;;;;;;;;;;5029061;28;20280;-83
2022/06/01 12:48:14;;;;;;;4.80;3.80;;;;;;;;;;5029344;28;20249;-84
2022/06/01 12:50:50;;;;;;;5.73;3.70;;;;;;;;;;5028615;28;20243;-83
2022/06/01 12:53:22;;;;;;;3.00;2.80;;;;;;;;;;5029183;28;20183;-83
2022/06/01 12:56:04;;;;;;;7.23;3.60;;;;;;;;;;5029286;28;20190;-83
2022/06/01 12:58:31;;;;;;;3.20;3.00;;;;;;;;;;5029270;28;20187;-83
2022/06/01 13:01:00;;;;;;;4.00;3.43;;;;;;;;;;5029096;28;20229;-83
2022/06/01 13:03:29;;;;;;;3.70;3.30;;;;;;;;;;5028995;28;20195;-83
2022/06/01 13:05:59;;;;;;;4.13;2.90;;;;;;;;;;5028811;28;20671;-82
2022/06/01 13:08:32;;;;;;;3.53;3.23;;;;;;;;;;5028864;28;20198;-83
2022/06/01 13:11:13;;;;;;;4.77;3.87;;;;;;;;;;5028655;28;20274;-83
2022/06/01 13:13:42;;;;;;;5.20;3.73;;;;;;;;;;5028761;28;20217;-82
2022/06/01 13:16:10;;;;;;;4.33;3.90;;;;;;;;;;5028845;28;20198;-82
2022/06/01 13:18:39;;;;;;;3.90;3.60;;;;;;;;;;5028811;28;20229;-82
2022/06/01 13:21:09;;;;;;;3.80;3.40;;;;;;;;;;5028319;28;20199;-83
2022/06/01 13:23:45;;;;;;;3.30;3.03;;;;;;;;;;5028848;28;20183;-82
2022/06/01 13:26:15;;;;;;;5.40;4.70;;;;;;;;;;5028777;28;20183;-83
2022/06/01 13:28:45;;;;;;;6.07;5.20;;;;;;;;;;5028738;28;20199;-82
2022/06/01 13:31:12;;;;;;;6.23;3.67;;;;;;;;;;5028580;28;20207;-83
2022/06/01 13:33:41;;;;;;;4.33;3.37;;;;;;;;;;5029005;28;20202;-83
2022/06/01 13:36:10;;;;;;;3.60;3.07;;;;;;;;;;5028259;28;20256;-82
2022/06/01 13:38:43;;;;;;;4.93;3.27;;;;;;;;;;5028771;28;20236;-83
2022/06/01 13:41:12;;;;;;;6.70;3.17;;;;;;;;;;5028572;28;20674;-84
2022/06/01 13:43:43;;;;;;;3.43;2.97;;;;;;;;;;5032849;28;20597;-83
2022/06/01 13:46:13;;;;;;;3.43;3.13;;;;;;;;;;5035009;28;20203;-84
2022/06/01 13:48:44;;;;;;;3.50;3.20;;;;;;;;;;5032990;28;20203;-82
2022/06/01 13:51:14;;;;;;;3.70;2.77;;;;;;;;;;5031540;28;20235;-82
2022/06/01 13:53:45;;;;;;;3.43;3.03;;;;;;;;;;5031498;28;20274;-82
2022/06/01 13:56:28;;;;;;;3.83;3.53;;;;;;;;;;5031568;28;20195;-83
2022/06/01 13:59:00;;;;;;;3.97;3.20;;;;;;;;;;5031591;28;20190;-83
2022/06/01 14:01:36;;;;;;;3.77;3.40;;;;;;;;;;5031230;28;20282;-84
2022/06/01 14:04:13;;;;;;;3.13;2.93;;;;;;;;;;5031908;28;20263;-84
2022/06/01 14:06:43;;;;;;;4.70;3.23;;;;;;;;;;5031411;28;20207;-83
2022/06/01 14:09:13;;;;;;;3.33;3.03;;;;;;;;;;5031239;28;20194;-82
2022/06/01 14:11:40;;;;;;;3.50;3.10;;;;;;;;;;5031414;28;20252;-83
2022/06/01 14:14:11;;;;;;;3.27;3.07;;;;;;;;;;5027078;28;20739;-83
2022/06/01 14:16:43;;;;;;;5.53;3.70;;;;;;;;;;5027132;28;20211;-83
2022/06/01 14:19:10;;;;;;;4.33;3.10;;;;;;;;;;5012040;28;20561;-83
2022/06/01 14:21:37;;;;;;;6.60;3.40;;;;;;;;;;5011282;28;20204;-83
2022/06/01 14:24:05;;;;;;;4.37;3.40;;;;;;;;;;5011894;28;20199;-83
2022/06/01 14:29:18;;;;;;;4.67;3.57;;;;;;;;;;5011565;28;20317;-83
2022/06/01 14:31:45;;;;;;;5.77;3.97;;;;;;;;;;5011189;28;20199;-82
2022/06/01 14:34:14;;;;;;;4.00;3.60;;;;;;;;;;5011653;28;20676;-83
2022/06/01 14:36:41;;;;;;;7.90;3.80;;;;;;;;;;5011287;28;20252;-83
2022/06/01 14:39:09;;;;;;;4.90;4.00;;;;;;;;;;5011353;28;20199;-83
2022/06/01 14:41:41;;;;;;;4.40;4.00;;;;;;;;;;5011069;28;20206;-83
2022/06/01 14:44:12;;;;;;;3.87;3.50;;;;;;;;;;5009692;28;20276;-82
2022/06/01 14:46:40;;;;;;;8.37;6.60;;;;;;;;;;5009346;28;20237;-82
2022/06/01 14:49:07;;;;;;;10.57;8.67;;;;;;;;;;5010508;28;20204;-83
2022/06/01 14:51:36;;;;;;;11.37;10.13;;;;;;;;;;5010762;28;20244;-83
2022/06/01 14:54:05;;;;;;;5.20;4.80;;;;;;;;;;5010958;28;20203;-83
2022/06/01 14:56:32;;;;;;;4.90;3.87;;;;;;;;;;5010116;28;20199;-82
2022/06/01 14:59:01;;;;;;;6.27;4.10;;;;;;;;;;5026860;28;20203;-82
2022/06/01 15:01:32;;;;;;;6.07;4.20;;;;;;;;;;5022202;28;20207;-81
2022/06/01 15:04:01;;;;;;;20.80;9.13;;;;;;;;;;5011343;28;20196;-82
2022/06/01 15:06:28;;;;;;;5.73;4.13;;;;;;;;;;5010409;28;20282;-89
2022/06/01 15:08:55;;;;;;;5.33;3.80;;;;;;;;;;5010756;28;20362;-85
2022/06/01 15:11:22;;;;;;;3.20;3.00;;;;;;;;;;5009173;28;20199;-82
2022/06/01 15:13:50;;;;;;;4.20;3.80;;;;;;;;;;5009470;28;20204;-82
2022/06/01 15:16:18;;;;;;;5.77;3.63;;;;;;;;;;5009409;28;20196;-81
2022/06/01 15:18:47;;;;;;;3.67;3.37;;;;;;;;;;5009450;28;20211;-81
2022/06/01 15:21:15;;;;;;;10.73;4.60;;;;;;;;;;5009721;28;20195;-81
2022/06/01 15:23:43;;;;;;;19.87;7.47;;;;;;;;;;5014294;28;20720;-80
2022/06/01 15:26:12;;;;;;;6.03;4.07;;;;;;;;;;5029592;28;20278;-81
2022/06/01 15:28:39;;;;;;;5.30;4.00;;;;;;;;;;5011951;28;20227;-81
2022/06/01 15:39:31;;;;;;;3.70;3.40;;;;;;;;;;5009455;28;20182;-81
2022/06/01 15:41:59;;;;;;;4.17;3.70;;;;;;;;;;5009567;28;20282;-82
2022/06/01 15:44:26;;;;;;;4.73;3.80;;;;;;;;;;5009694;28;20211;-82
2022/06/01 15:46:54;;;;;;;5.73;4.03;;;;;;;;;;5009030;28;20289;-83
2022/06/01 15:49:24;;;;;;;4.17;3.20;;;;;;;;;;5009213;28;20203;-82
2022/06/01 15:51:56;;;;;;;7.73;3.70;;;;;;;;;;5008801;28;20192;-81